sensor_id;sensor_type;location;lat;lon;timestamp;P1;durP1;ratioP1;P2;durP2;ratioP2
65031;SDS011;51593;55.714;37.436;2022-09-12T00:01:09;17.77;;;13.45;;
65031;SDS011;51593;55.714;37.436;2022-09-12T00:03:44;15.93;;;9.93;;
65031;SDS011;51593;55.714;37.436;2022-09-12T00:06:12;13.63;;;9.27;;
65031;SDS011;51593;55.714;37.436;2022-09-12T00:08:42;17.17;;;10.77;;
65031;SDS011;51593;55.714;37.436;2022-09-12T00:11:09;15.20;;;10.30;;
65031;SDS011;51593;55.714;37.436;2022-09-12T00:13:36;13.48;;;8.93;;
65031;SDS011;51593;55.714;37.436;2022-09-12T00:16:02;17.00;;;13.32;;
65031;SDS011;51593;55.714;37.436;2022-09-12T00:18:29;17.85;;;12.77;;
65031;SDS011;51593;55.714;37.436;2022-09-12T00:20:55;16.70;;;10.07;;
65031;SDS011;51593;55.714;37.436;2022-09-12T00:23:20;12.52;;;8.93;;
65031;SDS011;51593;55.714;37.436;2022-09-12T00:25:47;14.45;;;8.68;;
65031;SDS011;51593;55.714;37.436;2022-09-12T00:28:13;15.77;;;9.15;;
65031;SDS011;51593;55.714;37.436;2022-09-12T00:30:45;13.55;;;7.78;;
65031;SDS011;51593;55.714;37.436;2022-09-12T00:33:12;11.43;;;7.60;;
65031;SDS011;51593;55.714;37.436;2022-09-12T00:35:49;11.90;;;6.78;;
65031;SDS011;51593;55.714;37.436;2022-09-12T00:38:17;12.48;;;7.10;;
65031;SDS011;51593;55.714;37.436;2022-09-12T00:40:43;14.48;;;7.47;;
65031;SDS011;51593;55.714;37.436;2022-09-12T00:45:54;13.10;;;8.00;;
65031;SDS011;51593;55.714;37.436;2022-09-12T00:48:22;14.40;;;8.80;;
65031;SDS011;51593;55.714;37.436;2022-09-12T00:50:52;13.57;;;7.97;;
65031;SDS011;51593;55.714;37.436;2022-09-12T00:53:21;12.27;;;8.30;;
65031;SDS011;51593;55.714;37.436;2022-09-12T00:55:47;14.18;;;7.82;;
65031;SDS011;51593;55.714;37.436;2022-09-12T00:58:19;12.15;;;8.00;;
65031;SDS011;51593;55.714;37.436;2022-09-12T01:00:55;13.77;;;8.38;;
65031;SDS011;51593;55.714;37.436;2022-09-12T01:03:23;12.23;;;8.70;;
65031;SDS011;51593;55.714;37.436;2022-09-12T01:08:33;13.23;;;7.88;;
65031;SDS011;51593;55.714;37.436;2022-09-12T01:11:02;14.07;;;7.90;;
65031;SDS011;51593;55.714;37.436;2022-09-12T01:13:29;15.10;;;8.68;;
65031;SDS011;51593;55.714;37.436;2022-09-12T01:15:56;11.30;;;7.95;;
65031;SDS011;51593;55.714;37.436;2022-09-12T01:18:25;11.85;;;6.32;;
65031;SDS011;51593;55.714;37.436;2022-09-12T01:30:17;10.10;;;6.22;;
65031;SDS011;51593;55.714;37.436;2022-09-12T01:49:31;8.75;;;5.18;;
65031;SDS011;51593;55.714;37.436;2022-09-12T01:52:03;9.70;;;5.18;;
65031;SDS011;51593;55.714;37.436;2022-09-12T01:57:31;7.65;;;4.97;;
65031;SDS011;51593;55.714;37.436;2022-09-12T02:00:08;8.68;;;5.30;;
65031;SDS011;51593;55.714;37.436;2022-09-12T02:02:45;10.02;;;5.75;;
65031;SDS011;51593;55.714;37.436;2022-09-12T02:05:21;10.73;;;5.72;;
65031;SDS011;51593;55.714;37.436;2022-09-12T02:11:04;11.13;;;6.70;;
65031;SDS011;51593;55.714;37.436;2022-09-12T02:13:40;10.35;;;6.32;;
65031;SDS011;51593;55.714;37.436;2022-09-12T02:16:28;11.07;;;6.22;;
65031;SDS011;51593;55.714;37.436;2022-09-12T02:19:04;11.40;;;6.35;;
65031;SDS011;51593;55.714;37.436;2022-09-12T02:21:34;8.50;;;5.70;;
65031;SDS011;51593;55.714;37.436;2022-09-12T02:24:08;11.77;;;6.70;;
65031;SDS011;51593;55.714;37.436;2022-09-12T02:27:04;12.23;;;6.03;;
65031;SDS011;51593;55.714;37.436;2022-09-12T02:29:32;9.57;;;6.30;;
65031;SDS011;51593;55.714;37.436;2022-09-12T02:31:59;10.65;;;7.40;;
65031;SDS011;51593;55.714;37.436;2022-09-12T02:34:39;12.43;;;6.68;;
65031;SDS011;51593;55.714;37.436;2022-09-12T02:39:56;10.07;;;6.93;;
65031;SDS011;51593;55.714;37.436;2022-09-12T02:42:22;11.32;;;7.35;;
65031;SDS011;51593;55.714;37.436;2022-09-12T02:44:49;14.02;;;8.00;;
65031;SDS011;51593;55.714;37.436;2022-09-12T02:47:17;13.45;;;8.52;;
65031;SDS011;51593;55.714;37.436;2022-09-12T02:49:47;14.57;;;8.43;;
65031;SDS011;51593;55.714;37.436;2022-09-12T02:52:13;16.05;;;8.27;;
65031;SDS011;51593;55.714;37.436;2022-09-12T02:54:38;13.23;;;8.15;;
65031;SDS011;51593;55.714;37.436;2022-09-12T02:57:13;12.57;;;8.23;;
65031;SDS011;51593;55.714;37.436;2022-09-12T02:59:40;12.20;;;8.27;;
65031;SDS011;51593;55.714;37.436;2022-09-12T03:02:15;13.52;;;8.18;;
65031;SDS011;51593;55.714;37.436;2022-09-12T03:08:12;12.68;;;7.90;;
65031;SDS011;51593;55.714;37.436;2022-09-12T03:13:57;13.27;;;8.20;;
65031;SDS011;51593;55.714;37.436;2022-09-12T03:27:42;16.15;;;8.18;;
65031;SDS011;51593;55.714;37.436;2022-09-12T03:30:11;13.50;;;8.25;;
65031;SDS011;51593;55.714;37.436;2022-09-12T03:32:44;15.48;;;9.02;;
65031;SDS011;51593;55.714;37.436;2022-09-12T03:35:23;15.40;;;8.65;;
65031;SDS011;51593;55.714;37.436;2022-09-12T03:37:50;13.90;;;9.20;;
65031;SDS011;51593;55.714;37.436;2022-09-12T03:40:17;14.10;;;8.60;;
65031;SDS011;51593;55.714;37.436;2022-09-12T03:42:43;15.05;;;8.40;;
65031;SDS011;51593;55.714;37.436;2022-09-12T03:45:09;16.17;;;9.07;;
65031;SDS011;51593;55.714;37.436;2022-09-12T03:47:35;12.13;;;8.07;;
65031;SDS011;51593;55.714;37.436;2022-09-12T03:50:01;13.77;;;8.85;;
65031;SDS011;51593;55.714;37.436;2022-09-12T03:52:29;14.70;;;9.13;;
65031;SDS011;51593;55.714;37.436;2022-09-12T03:54:55;13.45;;;9.25;;
65031;SDS011;51593;55.714;37.436;2022-09-12T03:57:21;12.57;;;8.43;;
65031;SDS011;51593;55.714;37.436;2022-09-12T03:59:47;16.52;;;9.13;;
65031;SDS011;51593;55.714;37.436;2022-09-12T04:02:17;14.98;;;9.18;;
65031;SDS011;51593;55.714;37.436;2022-09-12T04:04:43;12.98;;;9.07;;
65031;SDS011;51593;55.714;37.436;2022-09-12T04:07:13;13.68;;;8.65;;
65031;SDS011;51593;55.714;37.436;2022-09-12T04:09:40;13.88;;;8.90;;
65031;SDS011;51593;55.714;37.436;2022-09-12T04:12:20;16.73;;;9.38;;
65031;SDS011;51593;55.714;37.436;2022-09-12T04:14:46;14.43;;;9.30;;
65031;SDS011;51593;55.714;37.436;2022-09-12T04:17:13;18.40;;;10.13;;
65031;SDS011;51593;55.714;37.436;2022-09-12T04:19:39;15.48;;;9.15;;
65031;SDS011;51593;55.714;37.436;2022-09-12T04:22:05;14.25;;;9.20;;
65031;SDS011;51593;55.714;37.436;2022-09-12T04:24:30;17.70;;;9.80;;
65031;SDS011;51593;55.714;37.436;2022-09-12T04:26:56;14.13;;;8.73;;
65031;SDS011;51593;55.714;37.436;2022-09-12T04:29:23;17.98;;;9.48;;
65031;SDS011;51593;55.714;37.436;2022-09-12T04:31:51;15.20;;;9.10;;
65031;SDS011;51593;55.714;37.436;2022-09-12T04:34:17;13.63;;;8.43;;
65031;SDS011;51593;55.714;37.436;2022-09-12T04:36:43;15.35;;;8.23;;
65031;SDS011;51593;55.714;37.436;2022-09-12T04:39:09;14.07;;;7.55;;
65031;SDS011;51593;55.714;37.436;2022-09-12T04:41:37;16.10;;;8.63;;
65031;SDS011;51593;55.714;37.436;2022-09-12T04:44:08;12.48;;;8.00;;
65031;SDS011;51593;55.714;37.436;2022-09-12T04:46:53;12.05;;;8.00;;
65031;SDS011;51593;55.714;37.436;2022-09-12T04:49:20;12.82;;;8.35;;
65031;SDS011;51593;55.714;37.436;2022-09-12T04:51:45;11.57;;;8.05;;
65031;SDS011;51593;55.714;37.436;2022-09-12T04:54:14;10.50;;;6.93;;
65031;SDS011;51593;55.714;37.436;2022-09-12T04:56:43;11.95;;;7.53;;
65031;SDS011;51593;55.714;37.436;2022-09-12T04:59:12;13.52;;;7.60;;
65031;SDS011;51593;55.714;37.436;2022-09-12T05:01:43;12.15;;;7.72;;
65031;SDS011;51593;55.714;37.436;2022-09-12T05:04:18;13.38;;;7.90;;
65031;SDS011;51593;55.714;37.436;2022-09-12T05:06:43;15.32;;;8.10;;
65031;SDS011;51593;55.714;37.436;2022-09-12T05:09:12;12.90;;;7.63;;
65031;SDS011;51593;55.714;37.436;2022-09-12T05:11:39;12.52;;;7.35;;
65031;SDS011;51593;55.714;37.436;2022-09-12T05:14:07;11.88;;;7.63;;
65031;SDS011;51593;55.714;37.436;2022-09-12T05:16:34;10.90;;;7.05;;
65031;SDS011;51593;55.714;37.436;2022-09-12T05:19:00;13.15;;;7.80;;
65031;SDS011;51593;55.714;37.436;2022-09-12T05:21:26;12.10;;;8.13;;
65031;SDS011;51593;55.714;37.436;2022-09-12T05:23:54;13.13;;;8.13;;
65031;SDS011;51593;55.714;37.436;2022-09-12T05:26:21;14.05;;;8.60;;
65031;SDS011;51593;55.714;37.436;2022-09-12T05:28:48;12.10;;;8.50;;
65031;SDS011;51593;55.714;37.436;2022-09-12T05:31:16;11.63;;;7.78;;
65031;SDS011;51593;55.714;37.436;2022-09-12T05:33:43;11.52;;;8.00;;
65031;SDS011;51593;55.714;37.436;2022-09-12T05:36:11;13.13;;;8.90;;
65031;SDS011;51593;55.714;37.436;2022-09-12T05:38:39;14.63;;;8.50;;
65031;SDS011;51593;55.714;37.436;2022-09-12T05:41:13;13.45;;;8.32;;
65031;SDS011;51593;55.714;37.436;2022-09-12T05:43:42;13.95;;;8.38;;
65031;SDS011;51593;55.714;37.436;2022-09-12T05:46:10;11.38;;;7.60;;
65031;SDS011;51593;55.714;37.436;2022-09-12T05:48:38;14.57;;;8.63;;
65031;SDS011;51593;55.714;37.436;2022-09-12T05:51:09;13.80;;;8.50;;
65031;SDS011;51593;55.714;37.436;2022-09-12T05:53:44;11.50;;;8.05;;
65031;SDS011;51593;55.714;37.436;2022-09-12T05:56:16;15.45;;;8.70;;
65031;SDS011;51593;55.714;37.436;2022-09-12T05:58:45;14.35;;;8.32;;
65031;SDS011;51593;55.714;37.436;2022-09-12T06:01:13;13.45;;;8.65;;
65031;SDS011;51593;55.714;37.436;2022-09-12T06:03:59;12.73;;;7.97;;
65031;SDS011;51593;55.714;37.436;2022-09-12T06:06:30;12.38;;;7.68;;
65031;SDS011;51593;55.714;37.436;2022-09-12T06:09:00;13.55;;;8.85;;
65031;SDS011;51593;55.714;37.436;2022-09-12T06:11:28;11.50;;;7.82;;
65031;SDS011;51593;55.714;37.436;2022-09-12T06:13:57;16.08;;;7.88;;
65031;SDS011;51593;55.714;37.436;2022-09-12T06:16:25;15.75;;;8.02;;
65031;SDS011;51593;55.714;37.436;2022-09-12T06:18:56;13.50;;;7.80;;
65031;SDS011;51593;55.714;37.436;2022-09-12T06:21:47;15.50;;;8.88;;
65031;SDS011;51593;55.714;37.436;2022-09-12T06:24:17;13.07;;;8.40;;
65031;SDS011;51593;55.714;37.436;2022-09-12T06:26:43;15.75;;;10.07;;
65031;SDS011;51593;55.714;37.436;2022-09-12T06:29:09;12.23;;;9.20;;
65031;SDS011;51593;55.714;37.436;2022-09-12T06:31:37;15.30;;;8.48;;
65031;SDS011;51593;55.714;37.436;2022-09-12T06:34:04;14.13;;;9.40;;
65031;SDS011;51593;55.714;37.436;2022-09-12T06:36:32;13.80;;;9.23;;
65031;SDS011;51593;55.714;37.436;2022-09-12T06:39:05;13.20;;;7.95;;
65031;SDS011;51593;55.714;37.436;2022-09-12T06:41:32;13.77;;;8.00;;
65031;SDS011;51593;55.714;37.436;2022-09-12T06:43:58;14.43;;;7.85;;
65031;SDS011;51593;55.714;37.436;2022-09-12T06:46:25;13.63;;;7.45;;
65031;SDS011;51593;55.714;37.436;2022-09-12T06:49:17;14.63;;;7.90;;
65031;SDS011;51593;55.714;37.436;2022-09-12T06:51:43;12.40;;;7.60;;
65031;SDS011;51593;55.714;37.436;2022-09-12T06:54:13;14.50;;;7.18;;
65031;SDS011;51593;55.714;37.436;2022-09-12T06:56:39;12.57;;;6.97;;
65031;SDS011;51593;55.714;37.436;2022-09-12T06:59:05;16.45;;;7.43;;
65031;SDS011;51593;55.714;37.436;2022-09-12T07:01:31;18.13;;;7.78;;
65031;SDS011;51593;55.714;37.436;2022-09-12T07:04:15;13.70;;;7.70;;
65031;SDS011;51593;55.714;37.436;2022-09-12T07:06:41;17.67;;;8.02;;
65031;SDS011;51593;55.714;37.436;2022-09-12T07:09:09;15.38;;;7.85;;
65031;SDS011;51593;55.714;37.436;2022-09-12T07:11:38;13.82;;;6.95;;
65031;SDS011;51593;55.714;37.436;2022-09-12T07:14:05;10.70;;;7.05;;
65031;SDS011;51593;55.714;37.436;2022-09-12T07:16:33;16.02;;;7.95;;
65031;SDS011;51593;55.714;37.436;2022-09-12T07:19:00;11.98;;;7.45;;
65031;SDS011;51593;55.714;37.436;2022-09-12T07:21:27;16.35;;;7.53;;
65031;SDS011;51593;55.714;37.436;2022-09-12T07:23:54;19.98;;;8.05;;
65031;SDS011;51593;55.714;37.436;2022-09-12T07:26:22;12.82;;;6.90;;
65031;SDS011;51593;55.714;37.436;2022-09-12T07:28:51;11.13;;;7.32;;
65031;SDS011;51593;55.714;37.436;2022-09-12T07:31:23;13.50;;;7.07;;
65031;SDS011;51593;55.714;37.436;2022-09-12T07:33:50;14.07;;;7.18;;
65031;SDS011;51593;55.714;37.436;2022-09-12T07:36:17;11.45;;;6.28;;
65031;SDS011;51593;55.714;37.436;2022-09-12T07:38:45;13.70;;;6.70;;
65031;SDS011;51593;55.714;37.436;2022-09-12T07:41:12;15.52;;;6.85;;
65031;SDS011;51593;55.714;37.436;2022-09-12T07:43:39;11.52;;;6.68;;
65031;SDS011;51593;55.714;37.436;2022-09-12T07:46:05;12.00;;;6.55;;
65031;SDS011;51593;55.714;37.436;2022-09-12T07:48:32;10.48;;;5.70;;
65031;SDS011;51593;55.714;37.436;2022-09-12T07:50:58;9.77;;;6.57;;
65031;SDS011;51593;55.714;37.436;2022-09-12T07:53:25;11.43;;;6.70;;
65031;SDS011;51593;55.714;37.436;2022-09-12T07:56:04;10.02;;;6.15;;
65031;SDS011;51593;55.714;37.436;2022-09-12T07:58:31;11.80;;;6.05;;
65031;SDS011;51593;55.714;37.436;2022-09-12T08:01:11;14.10;;;6.32;;
65031;SDS011;51593;55.714;37.436;2022-09-12T08:03:39;16.38;;;7.03;;
65031;SDS011;51593;55.714;37.436;2022-09-12T08:06:10;11.82;;;6.72;;
65031;SDS011;51593;55.714;37.436;2022-09-12T08:08:39;9.60;;;6.35;;
65031;SDS011;51593;55.714;37.436;2022-09-12T08:11:06;13.23;;;6.32;;
65031;SDS011;51593;55.714;37.436;2022-09-12T08:13:34;13.70;;;6.60;;
65031;SDS011;51593;55.714;37.436;2022-09-12T08:16:02;10.77;;;6.18;;
65031;SDS011;51593;55.714;37.436;2022-09-12T08:18:30;9.43;;;6.10;;
65031;SDS011;51593;55.714;37.436;2022-09-12T08:20:57;13.48;;;6.35;;
65031;SDS011;51593;55.714;37.436;2022-09-12T08:23:24;11.48;;;6.68;;
65031;SDS011;51593;55.714;37.436;2022-09-12T08:25:56;10.10;;;6.30;;
65031;SDS011;51593;55.714;37.436;2022-09-12T08:28:26;10.65;;;7.15;;
65031;SDS011;51593;55.714;37.436;2022-09-12T08:30:52;11.00;;;5.80;;
65031;SDS011;51593;55.714;37.436;2022-09-12T08:33:19;12.35;;;7.00;;
65031;SDS011;51593;55.714;37.436;2022-09-12T08:35:45;14.55;;;6.95;;
65031;SDS011;51593;55.714;37.436;2022-09-12T08:38:11;11.40;;;7.03;;
65031;SDS011;51593;55.714;37.436;2022-09-12T08:40:41;18.30;;;7.20;;
65031;SDS011;51593;55.714;37.436;2022-09-12T08:46:09;13.73;;;7.47;;
65031;SDS011;51593;55.714;37.436;2022-09-12T08:48:40;12.43;;;7.45;;
65031;SDS011;51593;55.714;37.436;2022-09-12T08:51:08;13.52;;;7.65;;
65031;SDS011;51593;55.714;37.436;2022-09-12T08:53:35;14.40;;;7.75;;
65031;SDS011;51593;55.714;37.436;2022-09-12T08:56:01;17.33;;;7.93;;
65031;SDS011;51593;55.714;37.436;2022-09-12T08:58:29;16.20;;;7.97;;
65031;SDS011;51593;55.714;37.436;2022-09-12T09:01:07;15.68;;;7.97;;
65031;SDS011;51593;55.714;37.436;2022-09-12T09:03:55;15.13;;;7.72;;
65031;SDS011;51593;55.714;37.436;2022-09-12T09:06:51;16.17;;;7.97;;
65031;SDS011;51593;55.714;37.436;2022-09-12T09:14:42;17.83;;;7.68;;
65031;SDS011;51593;55.714;37.436;2022-09-12T09:17:36;17.58;;;7.35;;
65031;SDS011;51593;55.714;37.436;2022-09-12T09:22:53;16.25;;;7.32;;
65031;SDS011;51593;55.714;37.436;2022-09-12T09:25:38;17.17;;;8.63;;
65031;SDS011;51593;55.714;37.436;2022-09-12T09:28:22;15.60;;;8.02;;
65031;SDS011;51593;55.714;37.436;2022-09-12T09:30:51;14.70;;;7.70;;
65031;SDS011;51593;55.714;37.436;2022-09-12T09:33:19;13.23;;;8.10;;
65031;SDS011;51593;55.714;37.436;2022-09-12T09:36:09;18.92;;;8.90;;
65031;SDS011;51593;55.714;37.436;2022-09-12T09:38:48;15.75;;;8.13;;
65031;SDS011;51593;55.714;37.436;2022-09-12T09:43:55;17.92;;;8.43;;
65031;SDS011;51593;55.714;37.436;2022-09-12T09:46:21;14.55;;;8.00;;
65031;SDS011;51593;55.714;37.436;2022-09-12T09:48:48;19.30;;;7.88;;
65031;SDS011;51593;55.714;37.436;2022-09-12T09:51:27;14.10;;;7.97;;
65031;SDS011;51593;55.714;37.436;2022-09-12T09:56:35;17.95;;;8.55;;
65031;SDS011;51593;55.714;37.436;2022-09-12T09:59:11;16.63;;;8.30;;
65031;SDS011;51593;55.714;37.436;2022-09-12T10:01:50;17.17;;;8.13;;
65031;SDS011;51593;55.714;37.436;2022-09-12T10:04:29;16.35;;;9.05;;
65031;SDS011;51593;55.714;37.436;2022-09-12T10:06:56;15.05;;;8.40;;
65031;SDS011;51593;55.714;37.436;2022-09-12T10:09:27;19.17;;;9.48;;
65031;SDS011;51593;55.714;37.436;2022-09-12T10:11:57;20.13;;;9.25;;
65031;SDS011;51593;55.714;37.436;2022-09-12T10:14:58;17.98;;;9.65;;
65031;SDS011;51593;55.714;37.436;2022-09-12T10:17:30;21.80;;;10.55;;
65031;SDS011;51593;55.714;37.436;2022-09-12T10:19:57;19.35;;;9.88;;
65031;SDS011;51593;55.714;37.436;2022-09-12T10:22:25;23.48;;;11.93;;
65031;SDS011;51593;55.714;37.436;2022-09-12T10:24:53;18.73;;;10.23;;
65031;SDS011;51593;55.714;37.436;2022-09-12T10:27:27;21.42;;;11.20;;
65031;SDS011;51593;55.714;37.436;2022-09-12T10:34:58;21.63;;;11.20;;
65031;SDS011;51593;55.714;37.436;2022-09-12T10:37:36;21.60;;;11.43;;
65031;SDS011;51593;55.714;37.436;2022-09-12T10:40:18;20.77;;;12.35;;
65031;SDS011;51593;55.714;37.436;2022-09-12T10:45:33;23.38;;;13.07;;
65031;SDS011;51593;55.714;37.436;2022-09-12T10:48:47;24.80;;;13.27;;
65031;SDS011;51593;55.714;37.436;2022-09-12T10:50:54;23.27;;;13.93;;
65031;SDS011;51593;55.714;37.436;2022-09-12T10:53:24;25.50;;;13.50;;
65031;SDS011;51593;55.714;37.436;2022-09-12T11:01:02;24.92;;;13.30;;
65031;SDS011;51593;55.714;37.436;2022-09-12T11:06:22;29.13;;;13.55;;
65031;SDS011;51593;55.714;37.436;2022-09-12T11:12:05;25.52;;;14.52;;
65031;SDS011;51593;55.714;37.436;2022-09-12T11:17:12;29.65;;;14.85;;
65031;SDS011;51593;55.714;37.436;2022-09-12T11:25:11;27.27;;;14.07;;
65031;SDS011;51593;55.714;37.436;2022-09-12T11:27:48;27.58;;;14.38;;
65031;SDS011;51593;55.714;37.436;2022-09-12T11:30:38;28.13;;;14.85;;
65031;SDS011;51593;55.714;37.436;2022-09-12T11:33:19;28.67;;;15.95;;
65031;SDS011;51593;55.714;37.436;2022-09-12T11:35:54;31.80;;;15.40;;
65031;SDS011;51593;55.714;37.436;2022-09-12T11:40:54;26.27;;;14.63;;
65031;SDS011;51593;55.714;37.436;2022-09-12T11:46:09;22.73;;;13.65;;
65031;SDS011;51593;55.714;37.436;2022-09-12T11:51:20;30.42;;;14.68;;
65031;SDS011;51593;55.714;37.436;2022-09-12T11:53:57;25.88;;;14.95;;
65031;SDS011;51593;55.714;37.436;2022-09-12T11:56:26;24.33;;;14.88;;
65031;SDS011;51593;55.714;37.436;2022-09-12T11:59:00;28.92;;;15.05;;
65031;SDS011;51593;55.714;37.436;2022-09-12T12:01:31;27.35;;;15.77;;
65031;SDS011;51593;55.714;37.436;2022-09-12T12:04:00;29.08;;;15.48;;
65031;SDS011;51593;55.714;37.436;2022-09-12T12:06:34;31.23;;;15.50;;
65031;SDS011;51593;55.714;37.436;2022-09-12T12:09:10;26.27;;;14.25;;
65031;SDS011;51593;55.714;37.436;2022-09-12T12:11:38;25.42;;;14.20;;
65031;SDS011;51593;55.714;37.436;2022-09-12T12:14:18;25.02;;;14.90;;
65031;SDS011;51593;55.714;37.436;2022-09-12T12:16:47;27.33;;;15.02;;
65031;SDS011;51593;55.714;37.436;2022-09-12T12:21:48;24.98;;;14.77;;
65031;SDS011;51593;55.714;37.436;2022-09-12T12:24:16;26.17;;;15.10;;
65031;SDS011;51593;55.714;37.436;2022-09-12T12:26:56;24.98;;;14.85;;
65031;SDS011;51593;55.714;37.436;2022-09-12T12:29:47;24.73;;;14.57;;
65031;SDS011;51593;55.714;37.436;2022-09-12T12:34:44;29.25;;;15.27;;
65031;SDS011;51593;55.714;37.436;2022-09-12T12:44:57;33.45;;;15.80;;
65031;SDS011;51593;55.714;37.436;2022-09-12T12:47:32;27.52;;;14.68;;
65031;SDS011;51593;55.714;37.436;2022-09-12T12:55:22;26.17;;;14.02;;
65031;SDS011;51593;55.714;37.436;2022-09-12T12:58:23;25.35;;;14.35;;
65031;SDS011;51593;55.714;37.436;2022-09-12T13:03:28;25.30;;;13.43;;
65031;SDS011;51593;55.714;37.436;2022-09-12T13:05:57;22.33;;;13.50;;
65031;SDS011;51593;55.714;37.436;2022-09-12T13:08:32;20.77;;;12.90;;
65031;SDS011;51593;55.714;37.436;2022-09-12T13:13:37;25.15;;;12.82;;
65031;SDS011;51593;55.714;37.436;2022-09-12T13:16:27;22.00;;;12.75;;
65031;SDS011;51593;55.714;37.436;2022-09-12T13:19:03;30.60;;;12.75;;
65031;SDS011;51593;55.714;37.436;2022-09-12T13:22:02;28.75;;;12.90;;
65031;SDS011;51593;55.714;37.436;2022-09-12T13:24:33;20.98;;;11.95;;
65031;SDS011;51593;55.714;37.436;2022-09-12T13:27:38;26.05;;;12.40;;
65031;SDS011;51593;55.714;37.436;2022-09-12T13:30:06;19.63;;;12.00;;
65031;SDS011;51593;55.714;37.436;2022-09-12T13:32:41;20.17;;;11.57;;
65031;SDS011;51593;55.714;37.436;2022-09-12T13:35:12;22.50;;;11.30;;
65031;SDS011;51593;55.714;37.436;2022-09-12T13:37:44;25.55;;;10.65;;
65031;SDS011;51593;55.714;37.436;2022-09-12T13:42:48;15.77;;;9.93;;
65031;SDS011;51593;55.714;37.436;2022-09-12T13:45:22;17.13;;;10.18;;
65031;SDS011;51593;55.714;37.436;2022-09-12T13:47:50;16.40;;;9.73;;
65031;SDS011;51593;55.714;37.436;2022-09-12T13:50:19;18.63;;;10.00;;
65031;SDS011;51593;55.714;37.436;2022-09-12T13:52:49;18.33;;;10.00;;
65031;SDS011;51593;55.714;37.436;2022-09-12T13:58:00;20.83;;;9.43;;
65031;SDS011;51593;55.714;37.436;2022-09-12T14:00:29;21.58;;;9.80;;
65031;SDS011;51593;55.714;37.436;2022-09-12T14:02:56;25.08;;;9.70;;
65031;SDS011;51593;55.714;37.436;2022-09-12T14:05:45;18.35;;;8.80;;
65031;SDS011;51593;55.714;37.436;2022-09-12T14:08:18;20.17;;;8.50;;
65031;SDS011;51593;55.714;37.436;2022-09-12T14:10:45;15.88;;;8.07;;
65031;SDS011;51593;55.714;37.436;2022-09-12T14:13:24;15.32;;;8.13;;
65031;SDS011;51593;55.714;37.436;2022-09-12T14:15:51;12.25;;;7.15;;
65031;SDS011;51593;55.714;37.436;2022-09-12T14:18:30;17.17;;;8.05;;
65031;SDS011;51593;55.714;37.436;2022-09-12T14:21:01;17.20;;;7.20;;
65031;SDS011;51593;55.714;37.436;2022-09-12T14:23:38;12.65;;;7.68;;
65031;SDS011;51593;55.714;37.436;2022-09-12T14:26:07;17.52;;;7.97;;
65031;SDS011;51593;55.714;37.436;2022-09-12T14:28:35;17.23;;;7.68;;
65031;SDS011;51593;55.714;37.436;2022-09-12T14:31:04;21.13;;;7.95;;
65031;SDS011;51593;55.714;37.436;2022-09-12T14:33:53;14.38;;;7.70;;
65031;SDS011;51593;55.714;37.436;2022-09-12T14:36:24;14.50;;;7.25;;
65031;SDS011;51593;55.714;37.436;2022-09-12T14:38:56;15.43;;;7.43;;
65031;SDS011;51593;55.714;37.436;2022-09-12T14:41:28;15.43;;;7.50;;
65031;SDS011;51593;55.714;37.436;2022-09-12T14:43:57;18.38;;;6.78;;
65031;SDS011;51593;55.714;37.436;2022-09-12T14:46:37;20.40;;;7.28;;
65031;SDS011;51593;55.714;37.436;2022-09-12T14:49:08;13.52;;;6.65;;
65031;SDS011;51593;55.714;37.436;2022-09-12T14:51:38;11.97;;;6.60;;
65031;SDS011;51593;55.714;37.436;2022-09-12T14:54:39;14.88;;;6.82;;
65031;SDS011;51593;55.714;37.436;2022-09-12T15:02:44;13.35;;;6.60;;
65031;SDS011;51593;55.714;37.436;2022-09-12T15:07:37;18.58;;;6.50;;
65031;SDS011;51593;55.714;37.436;2022-09-12T15:10:05;14.35;;;6.78;;
65031;SDS011;51593;55.714;37.436;2022-09-12T15:12:32;15.50;;;6.85;;
65031;SDS011;51593;55.714;37.436;2022-09-12T15:17:39;17.20;;;6.45;;
65031;SDS011;51593;55.714;37.436;2022-09-12T15:20:05;11.98;;;6.22;;
65031;SDS011;51593;55.714;37.436;2022-09-12T15:22:32;11.88;;;5.35;;
65031;SDS011;51593;55.714;37.436;2022-09-12T15:24:59;16.70;;;6.57;;
65031;SDS011;51593;55.714;37.436;2022-09-12T15:27:25;19.98;;;6.10;;
65031;SDS011;51593;55.714;37.436;2022-09-12T15:29:51;9.88;;;5.55;;
65031;SDS011;51593;55.714;37.436;2022-09-12T15:32:21;11.98;;;5.95;;
65031;SDS011;51593;55.714;37.436;2022-09-12T15:34:48;23.23;;;5.85;;
65031;SDS011;51593;55.714;37.436;2022-09-12T15:37:14;15.82;;;5.80;;
65031;SDS011;51593;55.714;37.436;2022-09-12T15:39:42;13.00;;;5.63;;
65031;SDS011;51593;55.714;37.436;2022-09-12T15:42:11;19.05;;;5.95;;
65031;SDS011;51593;55.714;37.436;2022-09-12T15:44:37;18.10;;;5.70;;
65031;SDS011;51593;55.714;37.436;2022-09-12T15:47:04;16.42;;;5.65;;
65031;SDS011;51593;55.714;37.436;2022-09-12T15:49:30;16.70;;;5.65;;
65031;SDS011;51593;55.714;37.436;2022-09-12T15:51:56;14.82;;;5.40;;
65031;SDS011;51593;55.714;37.436;2022-09-12T15:54:26;13.63;;;5.60;;
65031;SDS011;51593;55.714;37.436;2022-09-12T15:56:52;15.02;;;5.57;;
65031;SDS011;51593;55.714;37.436;2022-09-12T15:59:18;11.10;;;5.22;;
65031;SDS011;51593;55.714;37.436;2022-09-12T16:01:43;10.25;;;5.22;;
65031;SDS011;51593;55.714;37.436;2022-09-12T16:04:22;8.18;;;4.97;;
65031;SDS011;51593;55.714;37.436;2022-09-12T16:06:50;10.60;;;5.47;;
65031;SDS011;51593;55.714;37.436;2022-09-12T16:09:17;8.15;;;5.22;;
65031;SDS011;51593;55.714;37.436;2022-09-12T16:11:43;8.38;;;4.80;;
65031;SDS011;51593;55.714;37.436;2022-09-12T16:14:15;10.40;;;5.13;;
65031;SDS011;51593;55.714;37.436;2022-09-12T16:16:42;11.00;;;4.88;;
65031;SDS011;51593;55.714;37.436;2022-09-12T16:19:09;11.73;;;4.70;;
65031;SDS011;51593;55.714;37.436;2022-09-12T16:21:36;9.93;;;4.95;;
65031;SDS011;51593;55.714;37.436;2022-09-12T16:24:03;8.90;;;5.10;;
65031;SDS011;51593;55.714;37.436;2022-09-12T16:26:31;9.40;;;4.80;;
65031;SDS011;51593;55.714;37.436;2022-09-12T16:28:57;10.60;;;4.70;;
65031;SDS011;51593;55.714;37.436;2022-09-12T16:31:34;9.27;;;4.70;;
65031;SDS011;51593;55.714;37.436;2022-09-12T16:34:02;11.65;;;4.70;;
65031;SDS011;51593;55.714;37.436;2022-09-12T16:36:28;8.35;;;4.90;;
65031;SDS011;51593;55.714;37.436;2022-09-12T16:38:54;9.48;;;4.60;;
65031;SDS011;51593;55.714;37.436;2022-09-12T16:41:21;8.85;;;4.55;;
65031;SDS011;51593;55.714;37.436;2022-09-12T16:43:49;8.95;;;4.90;;
65031;SDS011;51593;55.714;37.436;2022-09-12T16:46:17;9.90;;;4.82;;
65031;SDS011;51593;55.714;37.436;2022-09-12T16:48:44;9.02;;;4.30;;
65031;SDS011;51593;55.714;37.436;2022-09-12T16:51:13;9.13;;;5.28;;
65031;SDS011;51593;55.714;37.436;2022-09-12T16:53:46;10.82;;;4.82;;
65031;SDS011;51593;55.714;37.436;2022-09-12T16:56:13;11.80;;;5.47;;
65031;SDS011;51593;55.714;37.436;2022-09-12T16:58:42;10.48;;;5.03;;
65031;SDS011;51593;55.714;37.436;2022-09-12T17:01:11;10.07;;;5.25;;
65031;SDS011;51593;55.714;37.436;2022-09-12T17:03:39;11.43;;;5.57;;
65031;SDS011;51593;55.714;37.436;2022-09-12T17:06:09;8.57;;;4.95;;
65031;SDS011;51593;55.714;37.436;2022-09-12T17:08:37;10.60;;;5.25;;
65031;SDS011;51593;55.714;37.436;2022-09-12T17:11:06;8.70;;;5.20;;